Latest Weather Observations for Sellicks Hill

IDS60801

Issued at 9:31 pm CST Saturday 30 May 2015 (issued every 30 minutes, with the page automatically refreshed every 10 minutes)

About weather observations | Map of weather stations | Latest weather observations for SA | Other Formats
Station Details ID: 023886 Name: MOUNT TERRIBLE RADAR Lat: -35.33 Lon: 138.50 Height: 385.7 m
Data from the previous 72 hours. | See also: Recent months for locations in South Australia
Date/Time
CST
Temp
°C
App
Temp
°C
Dew
Point
Rel
Hum
%
Delta-T
°C
Wind Press
QNH
hPa
Press
MSL
hPa
Rain
since 9 am
mm
Dir
 
Spd
km/h
Gust
km/h
Spd
kts
Gust
kts
30/09:30pm - - - - - NW 9 15 5 8 - - -
30/09:00pm - - - - - NW 13 22 7 12 - - -
30/08:30pm - - - - - WNW 11 22 6 12 - - -
30/08:00pm - - - - - WNW 13 22 7 12 - - -
30/07:30pm - - - - - WNW 9 20 5 11 - - -
30/07:00pm - - - - - WNW 11 22 6 12 - - -
30/06:30pm - - - - - WNW 13 26 7 14 - - -
30/06:00pm - - - - - NW 7 13 4 7 - - -
30/05:30pm - - - - - NW 9 20 5 11 - - -
30/05:00pm - - - - - NW 11 20 6 11 - - -
30/04:30pm - - - - - NW 9 20 5 11 - - -
30/04:00pm - - - - - NW 11 19 6 10 - - -
30/03:30pm - - - - - NW 13 28 7 15 - - -
30/03:00pm - - - - - NW 9 17 5 9 - - -
30/02:30pm - - - - - NW 11 19 6 10 - - -
30/02:00pm - - - - - NNW 11 22 6 12 - - -
30/01:30pm - - - - - NW 9 19 5 10 - - -
30/01:00pm - - - - - NW 13 24 7 13 - - -
30/12:30pm - - - - - NNW 13 28 7 15 - - -
30/12:00pm - - - - - NW 15 30 8 16 - - -
30/11:30am - - - - - NW 15 30 8 16 - - -
30/11:00am - - - - - NW 17 30 9 16 - - -
30/10:30am - - - - - NNW 15 28 8 15 - - -
30/10:00am - - - - - NNW 15 24 8 13 - - -
30/09:30am - - - - - NNW 15 33 8 18 - - -
30/09:00am - - - - - NW 13 28 7 15 - - -
30/08:30am - - - - - NW 11 26 6 14 - - -
30/08:00am - - - - - NW 13 20 7 11 - - -
30/07:30am - - - - - NW 13 22 7 12 - - -
30/07:00am - - - - - NW 13 22 7 12 - - -
30/06:30am - - - - - NW 13 24 7 13 - - -
30/06:00am - - - - - NW 11 24 6 13 - - -
30/05:30am - - - - - NW 13 24 7 13 - - -
30/05:00am - - - - - NW 11 24 6 13 - - -
30/04:30am - - - - - NW 11 22 6 12 - - -
30/04:00am - - - - - NW 13 26 7 14 - - -
30/03:30am - - - - - NW 13 24 7 13 - - -
30/03:00am - - - - - NW 13 24 7 13 - - -
30/02:30am - - - - - NW 11 20 6 11 - - -
30/02:00am - - - - - NW 9 17 5 9 - - -
30/01:30am - - - - - NW 11 17 6 9 - - -
30/01:00am - - - - - NW 9 19 5 10 - - -
30/12:30am - - - - - NW 9 15 5 8 - - -
30/12:00am - - - - - NW 9 15 5 8 - - -
 
Date/Time
CST
Temp
°C
App
Temp
°C
Dew
Point
Rel
Hum
%
Delta-T
°C
Wind Press
QNH
hPa
Press
MSL
hPa
Rain
since 9 am
mm
Dir
 
Spd
km/h
Gust
km/h
Spd
kts
Gust
kts
29/11:30pm - - - - - NW 9 15 5 8 - - -
29/11:00pm - - - - - NW 7 11 4 6 - - -
29/10:30pm - - - - - NW 7 11 4 6 - - -
29/10:00pm - - - - - NW 7 11 4 6 - - -
29/09:30pm - - - - - NNW 9 17 5 9 - - -
29/09:00pm - - - - - NW 11 24 6 13 - - -
29/08:30pm - - - - - NW 7 15 4 8 - - -
29/08:00pm - - - - - NW 7 13 4 7 - - -
29/07:30pm - - - - - NW 6 11 3 6 - - -
29/07:00pm - - - - - NW 7 17 4 9 - - -
29/06:30pm - - - - - NNW 9 17 5 9 - - -
29/06:00pm - - - - - NW 7 13 4 7 - - -
29/05:30pm - - - - - NW 7 13 4 7 - - -
29/05:00pm - - - - - NW 7 11 4 6 - - -
29/04:30pm - - - - - NNW 7 15 4 8 - - -
29/04:00pm - - - - - NW 9 15 5 8 - - -
29/03:30pm - - - - - NW 7 13 4 7 - - -
29/03:00pm - - - - - NNW 7 15 4 8 - - -
29/02:30pm - - - - - NW 9 20 5 11 - - -
29/02:00pm - - - - - NW 9 20 5 11 - - -
29/01:30pm - - - - - NW 6 11 3 6 - - -
29/01:00pm - - - - - NW 9 15 5 8 - - -
29/12:30pm - - - - - WNW 7 15 4 8 - - -
29/12:00pm - - - - - WNW 9 15 5 8 - - -
29/11:30am - - - - - WNW 7 17 4 9 - - -
29/11:00am - - - - - WNW 6 11 3 6 - - -
29/10:30am - - - - - NW 7 17 4 9 - - -
29/10:00am - - - - - NW 6 9 3 5 - - -
29/09:30am - - - - - WNW 7 17 4 9 - - -
29/09:00am - - - - - WSW 7 15 4 8 - - -
29/08:30am - - - - - SW 7 13 4 7 - - -
29/08:00am - - - - - SW 9 17 5 9 - - -
29/07:30am - - - - - SW 7 13 4 7 - - -
29/07:00am - - - - - WSW 6 11 3 6 - - -
29/06:30am - - - - - WSW 7 13 4 7 - - -
29/06:00am - - - - - W 7 15 4 8 - - -
29/05:30am - - - - - W 9 17 5 9 - - -
29/05:00am - - - - - W 7 13 4 7 - - -
29/04:30am - - - - - WNW 9 17 5 9 - - -
29/04:00am - - - - - WNW 7 13 4 7 - - -
29/03:30am - - - - - W 7 15 4 8 - - -
29/03:00am - - - - - W 7 15 4 8 - - -
29/02:30am - - - - - WNW 7 19 4 10 - - -
29/02:00am - - - - - W 7 15 4 8 - - -
29/01:30am - - - - - W 7 13 4 7 - - -
29/01:00am - - - - - W 7 15 4 8 - - -
29/12:30am - - - - - W 7 15 4 8 - - -
29/12:00am - - - - - W 9 20 5 11 - - -
 
Date/Time
CST
Temp
°C
App
Temp
°C
Dew
Point
Rel
Hum
%
Delta-T
°C
Wind Press
QNH
hPa
Press
MSL
hPa
Rain
since 9 am
mm
Dir
 
Spd
km/h
Gust
km/h
Spd
kts
Gust
kts
28/11:30pm - - - - - W 9 19 5 10 - - -
28/11:00pm - - - - - W 9 20 5 11 - - -
28/10:30pm - - - - - W 9 22 5 12 - - -
28/10:00pm - - - - - W 9 19 5 10 - - -
28/09:30pm - - - - - W 9 19 5 10 - - -
28/09:00pm - - - - - W 9 20 5 11 - - -
28/08:30pm - - - - - W 7 15 4 8 - - -
28/08:00pm - - - - - W 9 19 5 10 - - -
28/07:30pm - - - - - WSW 7 17 4 9 - - -
28/07:00pm - - - - - WSW 6 15 3 8 - - -
28/06:30pm - - - - - W 7 20 4 11 - - -
28/06:00pm - - - - - WSW 9 17 5 9 - - -
28/05:30pm - - - - - WNW 9 19 5 10 - - -
28/05:00pm - - - - - NW 11 22 6 12 - - -
28/04:30pm - - - - - WNW 15 28 8 15 - - -
28/04:00pm - - - - - NW 11 22 6 12 - - -
28/03:30pm - - - - - WNW 11 20 6 11 - - -
28/03:00pm - - - - - WNW 13 24 7 13 - - -
28/02:30pm - - - - - NW 15 28 8 15 - - -
28/02:00pm - - - - - NW 15 30 8 16 - - -
28/01:30pm - - - - - NW 15 32 8 17 - - -
28/01:00pm - - - - - NW 19 35 10 19 - - -
28/12:30pm - - - - - NNW 19 33 10 18 - - -
28/12:00pm - - - - - NNW 24 44 13 24 - - -
28/11:54am - - - - - NNW 28 52 15 28 - - -
28/11:30am - - - - - NNW 22 39 12 21 - - -
28/11:00am - - - - - NNW 22 33 12 18 - - -
28/10:30am - - - - - NNW 19 30 10 16 - - -
28/10:00am - - - - - NNW 19 30 10 16 - - -
28/09:30am - - - - - NNW 15 26 8 14 - - -
28/09:00am - - - - - NNW 15 26 8 14 - - -
28/08:30am - - - - - NNW 13 24 7 13 - - -
28/08:00am - - - - - NNW 15 22 8 12 - - -
28/07:30am - - - - - NNW 13 19 7 10 - - -
28/07:00am - - - - - NNW 13 22 7 12 - - -
28/06:30am - - - - - NNW 15 19 8 10 - - -
28/06:00am - - - - - NNW 13 19 7 10 - - -
28/05:30am - - - - - NNW 13 20 7 11 - - -
28/05:00am - - - - - NNW 11 19 6 10 - - -
28/04:30am - - - - - NNW 11 19 6 10 - - -
28/04:00am - - - - - NNW 11 17 6 9 - - -
28/03:30am - - - - - NNW 15 20 8 11 - - -
28/03:00am - - - - - NNW 15 24 8 13 - - -
28/02:30am - - - - - NNW 13 24 7 13 - - -
28/02:00am - - - - - NNW 13 20 7 11 - - -
28/01:30am - - - - - NNW 13 22 7 12 - - -
28/01:00am - - - - - N 11 22 6 12 - - -
28/12:30am - - - - - N 13 26 7 14 - - -
28/12:00am - - - - - NNW 11 20 6 11 - - -
 
Date/Time
CST
Temp
°C
App
Temp
°C
Dew
Point
Rel
Hum
%
Delta-T
°C
Wind Press
QNH
hPa
Press
MSL
hPa
Rain
since 9 am
mm
Dir
 
Spd
km/h
Gust
km/h
Spd
kts
Gust
kts
27/11:30pm - - - - - NNW 9 15 5 8 - - -
27/11:00pm - - - - - NNW 9 17 5 9 - - -
27/10:30pm - - - - - NNW 11 17 6 9 - - -
27/10:00pm - - - - - NNW 9 13 5 7 - - -

Other Formats:

Comma delimited format used in spreadsheet applications
http://www.bom.gov.au/fwo/IDS60801/IDS60801.95679.axf

JavaScript Object Notation format (JSON) in row-major order
http://www.bom.gov.au/fwo/IDS60801/IDS60801.95679.json